Magalia, California
Current Conditions -  °F | °C
As of 6:35 PM on Thursday 20 Nov 2014 (Local Time) from KCIC Reporting Station
Overcast Overcast  
Wind Chill: 50°   Ceiling: 400
Heat Index: 50°   Visibility: 5mi
Dew Point: 50°   Wind: 0mph
Humidity: 100%   Direction: NA
Pressure: 30.04"   Gusts: NA
Location:  39.81°N, 121.57°W
Report Text: KCIC 210235Z AUTO 00000KT 5SM OVC004 10/10 A3004 RMK AO1 P0004
Loading
Personal Weather Stations






























Interactive Weather Map New forecast layout! Learn more

10-Day Weather Forecast

Advertisements
Track Severe Weather on mobile